createdAt,value
2023-05-17T00:01:46.024Z,53.00
2023-05-17T00:04:13.132Z,52.80
2023-05-17T00:06:39.921Z,53.10
2023-05-17T00:09:06.814Z,52.80
2023-05-17T00:11:33.569Z,53.10
2023-05-17T00:14:00.531Z,53.10
2023-05-17T00:16:27.404Z,53.10
2023-05-17T00:18:54.334Z,52.90
2023-05-17T00:21:21.394Z,53.10
2023-05-17T00:23:49.001Z,53.20
2023-05-17T00:26:15.766Z,53.20
2023-05-17T00:28:43.166Z,53.00
2023-05-17T00:31:10.020Z,53.20
2023-05-17T00:33:36.852Z,53.10
2023-05-17T00:36:06.103Z,53.10
2023-05-17T00:38:32.946Z,53.10
2023-05-17T00:40:59.867Z,52.90
2023-05-17T00:43:27.521Z,53.20
2023-05-17T00:45:54.332Z,53.40
2023-05-17T00:48:21.287Z,53.10
2023-05-17T00:50:48.461Z,53.30
2023-05-17T00:53:17.682Z,53.40
2023-05-17T00:55:44.728Z,53.40
2023-05-17T00:58:12.216Z,53.40
2023-05-17T01:00:39.121Z,53.30
2023-05-17T01:03:06.118Z,53.50
2023-05-17T01:05:33.049Z,53.40
2023-05-17T01:07:59.912Z,53.40
2023-05-17T01:10:40.299Z,53.40
2023-05-17T01:13:35.163Z,53.60
2023-05-17T01:16:19.245Z,53.50
2023-05-17T01:18:57.695Z,53.50
2023-05-17T01:21:31.400Z,53.50
2023-05-17T01:24:07.231Z,53.60
2023-05-17T01:26:44.078Z,53.50
2023-05-17T01:29:13.210Z,53.40
2023-05-17T01:31:40.330Z,53.60
2023-05-17T01:34:11.337Z,53.50
2023-05-17T01:36:38.500Z,53.30
2023-05-17T01:39:05.367Z,53.50
2023-05-17T01:41:42.467Z,53.50
2023-05-17T01:44:36.374Z,53.40
2023-05-17T01:47:12.785Z,53.60
2023-05-17T01:49:41.036Z,53.60
2023-05-17T01:52:12.391Z,53.70
2023-05-17T01:54:51.236Z,53.40
2023-05-17T01:57:20.131Z,53.80
2023-05-17T01:59:47.512Z,53.70
2023-05-17T02:02:14.437Z,53.70
2023-05-17T02:04:41.393Z,53.70
2023-05-17T02:07:08.299Z,53.90
2023-05-17T02:09:35.048Z,53.70
2023-05-17T02:12:02.447Z,53.60
2023-05-17T02:14:29.257Z,53.70
2023-05-17T02:16:56.928Z,53.90
2023-05-17T02:19:23.860Z,53.80
2023-05-17T02:21:50.656Z,53.70
2023-05-17T02:24:17.485Z,53.90
2023-05-17T02:26:45.857Z,53.80
2023-05-17T02:29:12.625Z,53.70
2023-05-17T02:31:39.407Z,53.70
2023-05-17T02:34:07.133Z,53.70
2023-05-17T02:36:33.947Z,53.70
2023-05-17T02:39:01.327Z,53.80
2023-05-17T02:41:28.091Z,53.90
2023-05-17T02:43:54.833Z,53.80
2023-05-17T02:46:22.175Z,53.60
2023-05-17T02:48:48.939Z,54.30
2023-05-17T02:51:15.839Z,53.50
2023-05-17T02:53:42.866Z,53.50
2023-05-17T02:56:09.680Z,53.60
2023-05-17T02:58:36.770Z,53.70
2023-05-17T03:01:03.752Z,53.60
2023-05-17T03:03:31.766Z,53.60
2023-05-17T03:06:04.613Z,53.50
2023-05-17T03:08:32.313Z,53.50
2023-05-17T03:11:00.736Z,53.60
2023-05-17T03:13:28.009Z,53.50
2023-05-17T03:15:54.792Z,53.50
2023-05-17T03:18:23.003Z,53.60
2023-05-17T03:20:50.026Z,53.50
2023-05-17T03:23:17.665Z,53.70
2023-05-17T03:25:52.330Z,53.40
2023-05-17T03:28:19.473Z,53.60
2023-05-17T03:30:46.806Z,53.60
2023-05-17T03:33:14.929Z,53.70
2023-05-17T03:35:42.387Z,53.60
2023-05-17T03:38:09.586Z,53.70
2023-05-17T03:40:36.686Z,53.70
2023-05-17T03:43:03.905Z,53.80
2023-05-17T03:45:31.213Z,53.60
2023-05-17T03:47:58.185Z,53.60
2023-05-17T03:50:26.649Z,53.70
2023-05-17T03:52:53.554Z,53.50
2023-05-17T03:55:20.417Z,53.60
2023-05-17T03:57:47.732Z,53.70
2023-05-17T04:00:21.163Z,53.60
2023-05-17T04:02:49.072Z,53.70
2023-05-17T04:05:18.066Z,53.60
2023-05-17T04:07:46.489Z,53.70
2023-05-17T04:10:13.936Z,53.70
2023-05-17T04:12:40.722Z,53.70
2023-05-17T04:15:07.937Z,53.80
2023-05-17T04:17:36.951Z,53.90
2023-05-17T04:20:06.484Z,53.70
2023-05-17T04:22:34.548Z,54.00
2023-05-17T04:25:01.508Z,54.00
2023-05-17T04:27:29.240Z,53.90
2023-05-17T04:29:56.274Z,53.90
2023-05-17T04:32:24.139Z,54.00
2023-05-17T04:34:52.092Z,53.90
2023-05-17T04:37:19.480Z,53.80
2023-05-17T04:39:49.519Z,53.80
2023-05-17T04:42:16.481Z,53.80
2023-05-17T04:44:48.744Z,53.70
2023-05-17T04:47:15.607Z,53.80
2023-05-17T04:49:43.301Z,53.60
2023-05-17T04:52:10.405Z,53.80
2023-05-17T04:54:37.468Z,53.80
2023-05-17T04:57:04.897Z,53.80
2023-05-17T04:59:51.933Z,53.70
2023-05-17T05:02:19.599Z,53.80
2023-05-17T05:04:46.406Z,53.80
2023-05-17T05:07:14.195Z,53.80
2023-05-17T05:09:41.618Z,53.70
2023-05-17T05:12:11.153Z,53.80
2023-05-17T05:14:38.654Z,53.80
2023-05-17T05:17:06.093Z,53.70
2023-05-17T05:19:33.677Z,53.70
2023-05-17T05:22:01.348Z,53.70
2023-05-17T05:24:30.187Z,53.80
2023-05-17T05:26:57.052Z,53.70
2023-05-17T05:29:25.409Z,53.70
2023-05-17T05:31:52.369Z,53.70
2023-05-17T05:34:19.171Z,53.70
2023-05-17T05:36:46.263Z,53.60
2023-05-17T05:39:13.141Z,53.70
2023-05-17T05:41:40.085Z,53.70
2023-05-17T05:44:07.744Z,53.70
2023-05-17T05:46:34.708Z,53.70
2023-05-17T05:49:03.529Z,53.80
2023-05-17T05:51:32.495Z,53.60
2023-05-17T05:54:00.533Z,53.70
2023-05-17T05:56:28.212Z,53.60
2023-05-17T05:58:57.748Z,53.70
2023-05-17T06:01:25.349Z,53.70
2023-05-17T06:03:52.142Z,53.60
2023-05-17T06:06:19.469Z,53.70
2023-05-17T06:08:47.417Z,53.70
2023-05-17T06:11:14.422Z,54.30
2023-05-17T06:13:41.207Z,53.70
2023-05-17T06:16:07.960Z,53.70
2023-05-17T06:18:34.800Z,53.80
2023-05-17T06:21:01.657Z,53.70
2023-05-17T06:23:28.446Z,53.70
2023-05-17T06:25:55.780Z,53.60
2023-05-17T06:28:22.520Z,53.70
2023-05-17T06:30:52.004Z,53.70
2023-05-17T06:33:18.892Z,53.90
2023-05-17T06:35:56.250Z,54.40
2023-05-17T06:38:26.074Z,54.30
2023-05-17T06:40:54.643Z,54.20
2023-05-17T06:43:21.855Z,54.30
2023-05-17T06:45:48.641Z,54.40
2023-05-17T06:48:15.869Z,54.20
2023-05-17T06:50:43.069Z,54.40
2023-05-17T06:53:09.948Z,54.50
2023-05-17T06:55:37.144Z,54.10
2023-05-17T06:58:05.310Z,54.30
2023-05-17T07:00:32.791Z,54.60
2023-05-17T07:03:00.085Z,55.00
2023-05-17T07:05:29.405Z,55.30
2023-05-17T07:07:57.773Z,55.50
2023-05-17T07:10:24.903Z,55.90
2023-05-17T07:12:53.000Z,56.00
2023-05-17T07:15:19.924Z,56.10
2023-05-17T07:17:46.800Z,56.00
2023-05-17T07:20:14.742Z,56.00
2023-05-17T07:22:41.815Z,56.00
2023-05-17T07:25:09.271Z,55.80
2023-05-17T07:27:37.690Z,55.70
2023-05-17T07:30:05.440Z,55.80
2023-05-17T07:32:32.637Z,55.90
2023-05-17T07:34:59.635Z,55.90
2023-05-17T07:37:26.373Z,55.80
2023-05-17T07:39:53.127Z,55.80
2023-05-17T07:42:19.897Z,55.50
2023-05-17T07:44:48.687Z,54.70
2023-05-17T07:47:16.040Z,53.70
2023-05-17T07:49:42.905Z,52.90
2023-05-17T07:52:09.815Z,52.30
2023-05-17T07:54:36.674Z,52.20
2023-05-17T07:57:03.576Z,52.10
2023-05-17T07:59:30.435Z,51.80
2023-05-17T08:01:57.252Z,51.50
2023-05-17T08:04:24.360Z,50.70
2023-05-17T08:06:51.423Z,50.70
2023-05-17T08:09:18.491Z,50.80
2023-05-17T08:11:48.070Z,50.80
2023-05-17T08:14:15.998Z,50.70
2023-05-17T08:16:46.929Z,50.60
2023-05-17T08:19:15.019Z,50.60
2023-05-17T08:21:42.824Z,50.80
2023-05-17T08:24:09.910Z,50.70
2023-05-17T08:26:36.783Z,50.60
2023-05-17T08:29:04.847Z,50.60
2023-05-17T08:31:32.845Z,50.40
2023-05-17T08:33:59.817Z,50.20
2023-05-17T08:36:26.953Z,49.90
2023-05-17T08:38:53.809Z,49.60
2023-05-17T08:41:21.415Z,49.50
2023-05-17T08:43:52.077Z,49.10
2023-05-17T08:46:23.931Z,48.70
2023-05-17T08:48:52.118Z,49.10
2023-05-17T08:51:22.319Z,48.70
2023-05-17T08:53:50.560Z,48.50
2023-05-17T08:56:21.825Z,48.40
2023-05-17T08:58:56.333Z,48.20
2023-05-17T09:01:26.413Z,48.20
2023-05-17T09:03:54.578Z,48.30
2023-05-17T09:06:23.031Z,48.60
2023-05-17T09:08:58.560Z,48.50
2023-05-17T09:11:27.701Z,48.10
2023-05-17T09:13:58.115Z,47.70
2023-05-17T09:16:25.412Z,47.80
2023-05-17T09:18:56.815Z,47.80
2023-05-17T09:21:24.732Z,47.50
2023-05-17T09:24:04.875Z,47.70
2023-05-17T09:26:41.708Z,47.30
2023-05-17T09:29:16.261Z,47.10
2023-05-17T09:31:44.281Z,47.10
2023-05-17T09:34:11.878Z,47.10
2023-05-17T09:36:42.635Z,47.00
2023-05-17T09:39:12.751Z,46.70
2023-05-17T09:41:45.654Z,46.50
2023-05-17T09:44:13.775Z,46.10
2023-05-17T09:46:47.901Z,45.80
2023-05-17T09:49:16.528Z,44.80
2023-05-17T09:51:48.394Z,45.10
2023-05-17T09:54:15.568Z,45.00
2023-05-17T09:56:43.121Z,45.10
2023-05-17T09:59:15.550Z,45.00
2023-05-17T10:01:45.322Z,44.80
2023-05-17T10:04:13.262Z,45.00
2023-05-17T10:09:13.465Z,45.10
2023-05-17T10:11:43.092Z,45.30
2023-05-17T10:14:23.146Z,45.10
2023-05-17T10:16:51.850Z,44.60
2023-05-17T10:19:21.081Z,44.80
2023-05-17T10:21:49.046Z,44.90
2023-05-17T10:24:17.180Z,45.20
2023-05-17T10:26:44.737Z,45.50
2023-05-17T10:29:11.676Z,45.10
2023-05-17T10:31:41.725Z,44.80
2023-05-17T10:34:09.217Z,44.50
2023-05-17T10:36:36.487Z,44.20
2023-05-17T10:39:03.477Z,44.10
2023-05-17T10:41:33.391Z,44.00
2023-05-17T10:44:05.161Z,44.00
2023-05-17T10:46:32.390Z,43.40
2023-05-17T10:49:00.773Z,41.70
2023-05-17T10:51:33.867Z,40.60
2023-05-17T10:54:12.100Z,39.80
2023-05-17T10:56:42.094Z,39.20
2023-05-17T10:59:38.558Z,39.20
2023-05-17T11:02:09.823Z,38.90
2023-05-17T11:04:42.096Z,39.60
2023-05-17T11:07:22.250Z,39.60
2023-05-17T11:10:06.189Z,39.00
2023-05-17T11:12:38.442Z,39.00
2023-05-17T11:15:09.079Z,38.80
2023-05-17T11:17:35.900Z,39.10
2023-05-17T11:20:13.492Z,39.40
2023-05-17T11:22:44.520Z,39.60
2023-05-17T11:25:12.923Z,39.80
2023-05-17T11:27:48.112Z,39.90
2023-05-17T11:30:29.713Z,40.10
2023-05-17T11:33:14.018Z,40.10
2023-05-17T11:35:54.504Z,40.10
2023-05-17T11:38:27.709Z,40.30
2023-05-17T11:40:55.475Z,40.40
2023-05-17T11:43:28.692Z,40.20
2023-05-17T11:46:03.958Z,39.90
2023-05-17T11:48:31.570Z,39.90
2023-05-17T11:51:00.661Z,40.00
2023-05-17T11:53:31.096Z,39.70
2023-05-17T11:55:58.082Z,39.50
2023-05-17T11:58:25.790Z,39.40
2023-05-17T12:00:57.145Z,39.50
2023-05-17T12:03:29.144Z,39.50
2023-05-17T12:06:10.519Z,39.30
2023-05-17T12:08:40.096Z,39.10
2023-05-17T12:11:07.796Z,39.20
2023-05-17T12:13:35.606Z,38.90
2023-05-17T12:16:05.819Z,38.70
2023-05-17T12:18:40.641Z,38.70
2023-05-17T12:21:08.905Z,38.60
2023-05-17T12:23:43.490Z,38.60
2023-05-17T12:26:15.287Z,38.50
2023-05-17T12:28:46.080Z,38.30
2023-05-17T12:31:16.491Z,38.10
2023-05-17T12:33:44.473Z,38.00
2023-05-17T12:36:12.431Z,37.80
2023-05-17T12:38:41.116Z,37.80
2023-05-17T12:41:09.121Z,37.70
2023-05-17T12:43:38.455Z,37.50
2023-05-17T12:46:22.696Z,37.60
2023-05-17T12:48:51.012Z,37.00
2023-05-17T12:51:21.235Z,37.00
2023-05-17T12:53:55.972Z,37.50
2023-05-17T12:56:29.788Z,36.50
2023-05-17T12:59:13.440Z,36.20
2023-05-17T13:01:46.400Z,35.90
2023-05-17T13:04:14.312Z,36.00
2023-05-17T13:06:57.896Z,35.80
2023-05-17T13:09:27.873Z,35.40
2023-05-17T13:11:59.059Z,35.40
2023-05-17T13:14:47.441Z,35.10
2023-05-17T13:17:27.654Z,34.50
2023-05-17T13:19:57.460Z,34.50
2023-05-17T13:22:25.291Z,34.50
2023-05-17T13:24:52.188Z,34.50
2023-05-17T13:27:19.375Z,34.20
2023-05-17T13:29:46.236Z,34.00
2023-05-17T13:32:13.876Z,33.70
2023-05-17T13:34:41.007Z,33.70
2023-05-17T13:37:11.531Z,33.60
2023-05-17T13:39:40.447Z,33.60
2023-05-17T13:42:07.378Z,33.30
2023-05-17T13:44:34.313Z,33.20
2023-05-17T13:47:01.260Z,33.00
2023-05-17T13:49:28.613Z,32.80
2023-05-17T13:51:55.584Z,32.60
2023-05-17T13:54:27.057Z,32.50
2023-05-17T13:56:55.434Z,32.30
2023-05-17T13:59:22.346Z,32.40
2023-05-17T14:01:49.600Z,32.20
2023-05-17T14:04:16.498Z,32.20
2023-05-17T14:06:43.435Z,32.00
2023-05-17T14:09:10.899Z,31.90
2023-05-17T14:11:38.050Z,31.70
2023-05-17T14:14:04.883Z,31.70
2023-05-17T14:16:31.961Z,31.50
2023-05-17T14:19:00.996Z,31.50
2023-05-17T14:21:29.653Z,31.50
2023-05-17T14:23:56.490Z,31.40
2023-05-17T14:26:23.568Z,31.10
2023-05-17T14:28:50.790Z,31.10
2023-05-17T14:31:17.590Z,31.10
2023-05-17T14:33:44.390Z,30.90
2023-05-17T14:36:13.297Z,30.30
2023-05-17T14:38:41.054Z,30.20
2023-05-17T14:41:08.033Z,30.20
2023-05-17T14:43:34.898Z,29.50
2023-05-17T14:46:02.640Z,29.90
2023-05-17T14:48:30.998Z,29.10
2023-05-17T14:50:57.832Z,28.40
2023-05-17T14:53:29.052Z,29.20
2023-05-17T14:55:57.356Z,29.40
2023-05-17T14:58:24.236Z,29.60
2023-05-17T15:01:04.778Z,29.50
2023-05-17T15:03:33.069Z,29.50
2023-05-17T15:06:00.623Z,30.40
2023-05-17T15:08:28.091Z,30.70
2023-05-17T15:10:54.887Z,30.00
2023-05-17T15:13:21.678Z,31.00
2023-05-17T15:15:48.519Z,31.00
2023-05-17T15:18:15.424Z,31.60
2023-05-17T15:20:42.273Z,29.70
2023-05-17T15:23:09.900Z,29.40
2023-05-17T15:25:36.864Z,29.60
2023-05-17T15:28:03.814Z,30.00
2023-05-17T15:30:30.733Z,30.30
2023-05-17T15:32:58.918Z,30.10
2023-05-17T15:35:29.233Z,30.30
2023-05-17T15:37:58.019Z,30.40
2023-05-17T15:40:24.985Z,30.90
2023-05-17T15:42:52.534Z,29.80
2023-05-17T15:45:21.350Z,30.30
2023-05-17T15:47:49.449Z,31.20
2023-05-17T15:50:16.736Z,31.30
2023-05-17T15:52:43.531Z,31.50
2023-05-17T15:55:10.895Z,31.60
2023-05-17T15:57:37.722Z,31.90
2023-05-17T16:00:05.297Z,32.10
2023-05-17T16:02:32.130Z,32.30
2023-05-17T16:05:00.605Z,32.50
2023-05-17T16:07:29.525Z,32.20
2023-05-17T16:09:56.577Z,31.90
2023-05-17T16:12:23.336Z,31.40
2023-05-17T16:14:50.091Z,31.50
2023-05-17T16:17:16.901Z,31.10
2023-05-17T16:19:43.756Z,30.90
2023-05-17T16:22:10.916Z,31.10
2023-05-17T16:24:37.710Z,31.00
2023-05-17T16:27:06.524Z,31.20
2023-05-17T16:29:39.801Z,31.20
2023-05-17T16:32:07.919Z,31.30
2023-05-17T16:34:38.682Z,31.60
2023-05-17T16:37:05.485Z,30.80
2023-05-17T16:39:32.900Z,31.40
2023-05-17T16:41:59.831Z,31.90
2023-05-17T16:44:26.612Z,32.20
2023-05-17T16:46:53.511Z,32.60
2023-05-17T16:49:20.474Z,32.80
2023-05-17T16:51:47.294Z,32.80
2023-05-17T16:54:14.086Z,33.00
2023-05-17T16:56:41.045Z,33.20
2023-05-17T16:59:07.925Z,33.40
2023-05-17T17:01:38.289Z,33.40
2023-05-17T17:04:05.233Z,33.60
2023-05-17T17:06:33.797Z,33.70
2023-05-17T17:09:01.575Z,33.70
2023-05-17T17:11:28.337Z,33.80
2023-05-17T17:13:55.268Z,34.00
2023-05-17T17:16:22.685Z,34.20
2023-05-17T17:18:49.793Z,34.20
2023-05-17T17:21:16.976Z,34.20
2023-05-17T17:23:44.487Z,34.20
2023-05-17T17:26:11.431Z,33.90
2023-05-17T17:28:38.744Z,33.70
2023-05-17T17:31:06.647Z,33.80
2023-05-17T17:33:34.319Z,34.70
2023-05-17T17:36:02.549Z,34.70
2023-05-17T17:38:29.334Z,35.10
2023-05-17T17:40:56.140Z,35.00
2023-05-17T17:43:22.895Z,35.00
2023-05-17T17:45:49.647Z,35.30
2023-05-17T17:48:16.468Z,35.30
2023-05-17T17:50:43.266Z,35.30
2023-05-17T17:53:10.021Z,35.70
2023-05-17T17:55:36.747Z,36.00
2023-05-17T17:58:03.472Z,36.60
2023-05-17T18:00:30.788Z,36.30
2023-05-17T18:02:57.947Z,36.00
2023-05-17T18:05:26.057Z,36.30
2023-05-17T18:07:53.122Z,36.20
2023-05-17T18:10:20.430Z,36.30
2023-05-17T18:12:48.206Z,36.60
2023-05-17T18:15:17.149Z,36.50
2023-05-17T18:17:43.960Z,36.70
2023-05-17T18:20:11.168Z,36.80
2023-05-17T18:22:38.006Z,36.90
2023-05-17T18:25:05.038Z,37.00
2023-05-17T18:27:31.778Z,37.10
2023-05-17T18:29:58.519Z,37.10
2023-05-17T18:32:25.361Z,37.30
2023-05-17T18:34:52.229Z,37.30
2023-05-17T18:37:19.038Z,37.60
2023-05-17T18:39:45.784Z,37.60
2023-05-17T18:42:12.619Z,37.80
2023-05-17T18:44:39.580Z,38.10
2023-05-17T18:47:07.936Z,38.20
2023-05-17T18:49:36.420Z,38.30
2023-05-17T18:52:03.269Z,38.50
2023-05-17T18:54:30.039Z,38.50
2023-05-17T18:56:56.845Z,38.80
2023-05-17T18:59:23.585Z,38.80
2023-05-17T19:01:50.497Z,39.00
2023-05-17T19:04:17.249Z,39.00
2023-05-17T19:06:44.104Z,39.30
2023-05-17T19:09:10.978Z,39.40
2023-05-17T19:11:37.789Z,39.50
2023-05-17T19:14:04.623Z,39.80
2023-05-17T19:16:31.617Z,40.00
2023-05-17T19:18:58.429Z,40.20
2023-05-17T19:21:25.177Z,39.40
2023-05-17T19:23:51.991Z,39.90
2023-05-17T19:26:18.784Z,39.70
2023-05-17T19:28:45.644Z,39.70
2023-05-17T19:31:12.603Z,39.70
2023-05-17T19:33:39.424Z,40.10
2023-05-17T19:36:06.490Z,39.70
2023-05-17T19:38:33.399Z,40.10
2023-05-17T19:41:01.410Z,40.00
2023-05-17T19:43:28.266Z,40.50
2023-05-17T19:45:55.058Z,40.10
2023-05-17T19:48:23.980Z,40.30
2023-05-17T19:50:50.966Z,40.20
2023-05-17T19:53:17.773Z,40.40
2023-05-17T19:55:44.528Z,40.00
2023-05-17T19:58:11.318Z,40.50
2023-05-17T20:00:38.382Z,40.70
2023-05-17T20:03:05.456Z,40.70
2023-05-17T20:05:32.326Z,40.70
2023-05-17T20:08:02.303Z,40.60
2023-05-17T20:10:32.510Z,40.60
2023-05-17T20:12:59.417Z,40.80
2023-05-17T20:15:26.179Z,40.90
2023-05-17T20:17:53.034Z,40.80
2023-05-17T20:20:19.864Z,41.00
2023-05-17T20:22:46.809Z,41.20
2023-05-17T20:25:13.640Z,41.10
2023-05-17T20:27:40.489Z,41.30
2023-05-17T20:30:07.811Z,41.30
2023-05-17T20:32:34.627Z,41.20
2023-05-17T20:35:02.283Z,40.80
2023-05-17T20:37:29.062Z,41.00
2023-05-17T20:39:59.201Z,41.00
2023-05-17T20:42:28.104Z,40.90
2023-05-17T20:44:54.955Z,40.80
2023-05-17T20:47:22.364Z,41.30
2023-05-17T20:49:50.216Z,41.10
2023-05-17T20:52:24.742Z,40.80
2023-05-17T20:55:05.190Z,41.10
2023-05-17T20:57:32.043Z,41.00
2023-05-17T20:59:58.860Z,41.20
2023-05-17T21:02:25.811Z,41.20
2023-05-17T21:04:55.375Z,41.70
2023-05-17T21:07:22.625Z,41.20
2023-05-17T21:09:49.532Z,41.10
2023-05-17T21:12:18.222Z,41.00
2023-05-17T21:14:45.029Z,41.60
2023-05-17T21:17:11.800Z,41.30
2023-05-17T21:19:38.667Z,41.30
2023-05-17T21:22:05.820Z,41.10
2023-05-17T21:24:32.659Z,41.10
2023-05-17T21:26:59.530Z,41.20
2023-05-17T21:29:26.339Z,41.10
2023-05-17T21:31:53.381Z,41.60
2023-05-17T21:34:20.419Z,41.80
2023-05-17T21:36:47.338Z,41.70
2023-05-17T21:39:14.098Z,41.70
2023-05-17T21:41:41.030Z,41.90
2023-05-17T21:44:07.791Z,41.80
2023-05-17T21:46:34.573Z,41.50
2023-05-17T21:49:01.396Z,41.60
2023-05-17T21:51:28.242Z,41.90
2023-05-17T21:53:55.015Z,41.80
2023-05-17T21:56:21.890Z,42.20
2023-05-17T21:58:48.630Z,43.00
2023-05-17T22:01:17.255Z,42.90
2023-05-17T22:03:44.232Z,42.60
2023-05-17T22:06:11.148Z,42.70
2023-05-17T22:08:37.894Z,43.10
2023-05-17T22:11:05.708Z,42.90
2023-05-17T22:13:32.593Z,42.90
2023-05-17T22:15:59.471Z,43.10
2023-05-17T22:18:27.131Z,43.00
2023-05-17T22:20:55.068Z,43.40
2023-05-17T22:23:21.958Z,42.90
2023-05-17T22:25:48.746Z,42.80
2023-05-17T22:28:15.634Z,42.90
2023-05-17T22:30:44.815Z,42.70
2023-05-17T22:33:11.854Z,43.00
2023-05-17T22:35:40.998Z,42.40
2023-05-17T22:38:07.876Z,43.20
2023-05-17T22:40:41.396Z,43.20
2023-05-17T22:43:08.294Z,43.10
2023-05-17T22:45:35.150Z,43.30
2023-05-17T22:48:05.629Z,43.30
2023-05-17T22:50:32.949Z,43.20
2023-05-17T22:53:00.138Z,42.80
2023-05-17T22:55:27.410Z,43.20
2023-05-17T22:57:54.698Z,43.10
2023-05-17T23:00:21.679Z,43.20
2023-05-17T23:02:48.625Z,43.00
2023-05-17T23:05:15.727Z,43.20
2023-05-17T23:07:43.399Z,42.90
2023-05-17T23:10:10.912Z,43.40
2023-05-17T23:12:37.747Z,43.50
2023-05-17T23:15:06.160Z,43.50
2023-05-17T23:17:33.422Z,43.50
2023-05-17T23:20:13.005Z,43.40
2023-05-17T23:22:40.103Z,43.60
2023-05-17T23:25:07.304Z,43.50
2023-05-17T23:27:35.442Z,43.10
2023-05-17T23:30:03.025Z,43.40
2023-05-17T23:32:32.502Z,43.60
2023-05-17T23:35:03.642Z,43.40
2023-05-17T23:37:33.929Z,43.40
2023-05-17T23:40:01.029Z,43.50
2023-05-17T23:42:29.388Z,43.60
2023-05-17T23:44:56.207Z,43.40
2023-05-17T23:47:23.813Z,43.40
2023-05-17T23:49:51.084Z,43.70
2023-05-17T23:52:18.763Z,43.70
2023-05-17T23:54:46.851Z,43.50
2023-05-17T23:57:13.956Z,43.70
2023-05-17T23:59:40.834Z,43.60
